sensor_id;sensor_type;location;lat;lon;timestamp;pressure;altitude;pressure_sealevel;temperature;humidity
67109;BME280;54027;50.786;7.058;2022-07-05T00:01:47;101554.50;;;17.46;58.45
67109;BME280;54027;50.786;7.058;2022-07-05T00:04:13;101562.28;;;17.48;59.07
67109;BME280;54027;50.786;7.058;2022-07-05T00:06:38;101564.03;;;17.49;58.92
67109;BME280;54027;50.786;7.058;2022-07-05T00:09:23;101558.34;;;17.36;59.73
67109;BME280;54027;50.786;7.058;2022-07-05T00:11:49;101558.03;;;17.45;59.26
67109;BME280;54027;50.786;7.058;2022-07-05T00:14:14;101552.72;;;17.47;58.91
67109;BME280;54027;50.786;7.058;2022-07-05T00:16:39;101559.03;;;17.41;59.33
67109;BME280;54027;50.786;7.058;2022-07-05T00:19:05;101560.97;;;17.36;59.62
67109;BME280;54027;50.786;7.058;2022-07-05T00:21:30;101554.06;;;17.34;60.30
67109;BME280;54027;50.786;7.058;2022-07-05T00:23:55;101562.00;;;17.32;60.41
67109;BME280;54027;50.786;7.058;2022-07-05T00:26:21;101560.13;;;17.36;60.30
67109;BME280;54027;50.786;7.058;2022-07-05T00:28:46;101567.31;;;17.31;60.25
67109;BME280;54027;50.786;7.058;2022-07-05T00:31:11;101570.06;;;17.28;60.16
67109;BME280;54027;50.786;7.058;2022-07-05T00:33:37;101570.84;;;17.30;60.27
67109;BME280;54027;50.786;7.058;2022-07-05T00:36:02;101567.03;;;17.38;59.92
67109;BME280;54027;50.786;7.058;2022-07-05T00:38:27;101573.44;;;17.31;59.07
67109;BME280;54027;50.786;7.058;2022-07-05T00:40:53;101573.59;;;17.27;59.78
67109;BME280;54027;50.786;7.058;2022-07-05T00:43:18;101578.56;;;17.34;59.25
67109;BME280;54027;50.786;7.058;2022-07-05T00:45:43;101572.13;;;17.43;58.89
67109;BME280;54027;50.786;7.058;2022-07-05T00:48:09;101569.84;;;17.34;59.72
67109;BME280;54027;50.786;7.058;2022-07-05T00:50:34;101573.34;;;17.33;59.20
67109;BME280;54027;50.786;7.058;2022-07-05T00:52:59;101583.38;;;17.23;59.81
67109;BME280;54027;50.786;7.058;2022-07-05T00:55:25;101578.84;;;17.27;59.03
67109;BME280;54027;50.786;7.058;2022-07-05T00:57:50;101577.94;;;17.28;59.06
67109;BME280;54027;50.786;7.058;2022-07-05T01:00:16;101575.25;;;17.29;59.32
67109;BME280;54027;50.786;7.058;2022-07-05T01:02:41;101573.47;;;17.30;59.69
67109;BME280;54027;50.786;7.058;2022-07-05T01:05:06;101576.16;;;17.28;59.56
67109;BME280;54027;50.786;7.058;2022-07-05T01:07:32;101580.75;;;17.23;59.35
67109;BME280;54027;50.786;7.058;2022-07-05T01:09:57;101584.41;;;17.18;59.41
67109;BME280;54027;50.786;7.058;2022-07-05T01:12:23;101586.00;;;17.23;59.62
67109;BME280;54027;50.786;7.058;2022-07-05T01:14:48;101587.75;;;17.23;60.05
67109;BME280;54027;50.786;7.058;2022-07-05T01:17:13;101587.69;;;17.24;60.10
67109;BME280;54027;50.786;7.058;2022-07-05T01:19:39;101588.22;;;17.09;60.44
67109;BME280;54027;50.786;7.058;2022-07-05T01:22:04;101584.63;;;17.12;60.07
67109;BME280;54027;50.786;7.058;2022-07-05T01:24:35;101582.88;;;17.12;59.90
67109;BME280;54027;50.786;7.058;2022-07-05T01:27:01;101588.88;;;17.16;59.93
67109;BME280;54027;50.786;7.058;2022-07-05T01:29:27;101592.56;;;17.10;60.13
67109;BME280;54027;50.786;7.058;2022-07-05T01:31:52;101587.59;;;17.02;60.07
67109;BME280;54027;50.786;7.058;2022-07-05T01:34:17;101587.63;;;17.01;61.00
67109;BME280;54027;50.786;7.058;2022-07-05T01:36:43;101589.56;;;16.96;60.87
67109;BME280;54027;50.786;7.058;2022-07-05T01:39:08;101588.31;;;17.06;60.18
67109;BME280;54027;50.786;7.058;2022-07-05T01:41:34;101591.22;;;16.98;61.53
67109;BME280;54027;50.786;7.058;2022-07-05T01:43:59;101585.19;;;16.96;61.58
67109;BME280;54027;50.786;7.058;2022-07-05T01:46:25;101592.22;;;16.94;61.62
67109;BME280;54027;50.786;7.058;2022-07-05T01:48:51;101584.47;;;16.91;61.58
67109;BME280;54027;50.786;7.058;2022-07-05T01:51:20;101596.00;;;16.87;62.06
67109;BME280;54027;50.786;7.058;2022-07-05T01:53:46;101600.41;;;16.85;62.01
67109;BME280;54027;50.786;7.058;2022-07-05T01:56:14;101585.41;;;16.90;62.61
67109;BME280;54027;50.786;7.058;2022-07-05T01:58:40;101596.03;;;16.86;61.86
67109;BME280;54027;50.786;7.058;2022-07-05T02:01:06;101596.22;;;16.80;61.75
67109;BME280;54027;50.786;7.058;2022-07-05T02:03:31;101599.50;;;16.86;62.07
67109;BME280;54027;50.786;7.058;2022-07-05T02:05:57;101589.69;;;16.93;61.29
67109;BME280;54027;50.786;7.058;2022-07-05T02:08:26;101594.97;;;16.91;61.37
67109;BME280;54027;50.786;7.058;2022-07-05T02:10:53;101591.53;;;16.89;61.47
67109;BME280;54027;50.786;7.058;2022-07-05T02:13:18;101592.22;;;16.94;61.45
67109;BME280;54027;50.786;7.058;2022-07-05T02:15:45;101596.72;;;16.91;61.25
67109;BME280;54027;50.786;7.058;2022-07-05T02:18:11;101594.25;;;16.86;60.80
67109;BME280;54027;50.786;7.058;2022-07-05T02:20:37;101594.97;;;16.91;60.83
67109;BME280;54027;50.786;7.058;2022-07-05T02:23:03;101600.69;;;16.78;61.51
67109;BME280;54027;50.786;7.058;2022-07-05T02:25:28;101595.69;;;16.70;61.45
67109;BME280;54027;50.786;7.058;2022-07-05T02:27:53;101591.78;;;16.82;61.04
67109;BME280;54027;50.786;7.058;2022-07-05T02:30:19;101594.41;;;16.82;61.18
67109;BME280;54027;50.786;7.058;2022-07-05T02:32:44;101597.59;;;16.91;60.95
67109;BME280;54027;50.786;7.058;2022-07-05T02:35:10;101592.84;;;16.76;61.64
67109;BME280;54027;50.786;7.058;2022-07-05T02:37:36;101597.47;;;16.70;61.99
67109;BME280;54027;50.786;7.058;2022-07-05T02:40:01;101594.69;;;16.74;61.48
67109;BME280;54027;50.786;7.058;2022-07-05T02:42:26;101596.50;;;16.72;61.48
67109;BME280;54027;50.786;7.058;2022-07-05T02:44:52;101593.91;;;16.71;61.51
67109;BME280;54027;50.786;7.058;2022-07-05T02:47:17;101596.69;;;16.66;61.53
67109;BME280;54027;50.786;7.058;2022-07-05T02:49:42;101596.72;;;16.65;61.96
67109;BME280;54027;50.786;7.058;2022-07-05T02:52:08;101604.66;;;16.63;62.37
67109;BME280;54027;50.786;7.058;2022-07-05T02:54:33;101606.78;;;16.50;62.28
67109;BME280;54027;50.786;7.058;2022-07-05T02:56:59;101607.56;;;16.54;62.87
67109;BME280;54027;50.786;7.058;2022-07-05T02:59:24;101610.03;;;16.59;62.26
67109;BME280;54027;50.786;7.058;2022-07-05T03:01:49;101609.88;;;16.63;61.72
67109;BME280;54027;50.786;7.058;2022-07-05T03:04:14;101608.84;;;16.67;61.19
67109;BME280;54027;50.786;7.058;2022-07-05T03:06:40;101595.94;;;16.61;62.15
67109;BME280;54027;50.786;7.058;2022-07-05T03:09:05;101596.97;;;16.57;61.92
67109;BME280;54027;50.786;7.058;2022-07-05T03:11:30;101605.03;;;16.51;61.66
67109;BME280;54027;50.786;7.058;2022-07-05T03:13:56;101602.50;;;16.48;62.45
67109;BME280;54027;50.786;7.058;2022-07-05T03:16:21;101599.22;;;16.41;62.79
67109;BME280;54027;50.786;7.058;2022-07-05T03:18:48;101601.66;;;16.47;62.55
67109;BME280;54027;50.786;7.058;2022-07-05T03:21:14;101604.38;;;16.44;62.74
67109;BME280;54027;50.786;7.058;2022-07-05T03:23:39;101600.09;;;16.42;62.62
67109;BME280;54027;50.786;7.058;2022-07-05T03:26:05;101602.63;;;16.45;62.64
67109;BME280;54027;50.786;7.058;2022-07-05T03:28:30;101613.09;;;16.45;62.71
67109;BME280;54027;50.786;7.058;2022-07-05T03:30:55;101609.72;;;16.41;62.75
67109;BME280;54027;50.786;7.058;2022-07-05T03:33:21;101609.63;;;16.44;62.89
67109;BME280;54027;50.786;7.058;2022-07-05T03:35:46;101612.59;;;16.34;63.55
67109;BME280;54027;50.786;7.058;2022-07-05T03:38:11;101614.81;;;16.46;63.26
67109;BME280;54027;50.786;7.058;2022-07-05T03:40:37;101613.38;;;16.36;63.49
67109;BME280;54027;50.786;7.058;2022-07-05T03:43:02;101607.38;;;16.32;63.82
67109;BME280;54027;50.786;7.058;2022-07-05T03:45:27;101612.44;;;16.38;63.22
67109;BME280;54027;50.786;7.058;2022-07-05T03:47:56;101612.44;;;16.38;63.60
67109;BME280;54027;50.786;7.058;2022-07-05T03:50:22;101614.28;;;16.35;63.99
67109;BME280;54027;50.786;7.058;2022-07-05T03:52:47;101611.81;;;16.30;63.30
67109;BME280;54027;50.786;7.058;2022-07-05T03:55:12;101610.06;;;16.31;63.56
67109;BME280;54027;50.786;7.058;2022-07-05T03:57:37;101614.47;;;16.29;63.25
67109;BME280;54027;50.786;7.058;2022-07-05T04:00:03;101615.59;;;16.22;64.16
67109;BME280;54027;50.786;7.058;2022-07-05T04:02:29;101622.44;;;16.26;63.84
67109;BME280;54027;50.786;7.058;2022-07-05T04:04:54;101620.38;;;16.37;63.10
67109;BME280;54027;50.786;7.058;2022-07-05T04:07:19;101625.69;;;16.34;62.92
67109;BME280;54027;50.786;7.058;2022-07-05T04:09:45;101617.88;;;16.32;62.36
67109;BME280;54027;50.786;7.058;2022-07-05T04:12:10;101627.31;;;16.38;62.66
67109;BME280;54027;50.786;7.058;2022-07-05T04:14:35;101624.50;;;16.44;61.66
67109;BME280;54027;50.786;7.058;2022-07-05T04:17:01;101628.56;;;16.52;61.23
67109;BME280;54027;50.786;7.058;2022-07-05T04:19:26;101630.56;;;16.46;62.05
67109;BME280;54027;50.786;7.058;2022-07-05T04:21:51;101635.81;;;16.46;61.88
67109;BME280;54027;50.786;7.058;2022-07-05T04:24:17;101631.31;;;16.49;61.75
67109;BME280;54027;50.786;7.058;2022-07-05T04:26:42;101635.03;;;16.42;61.98
67109;BME280;54027;50.786;7.058;2022-07-05T04:29:07;101638.97;;;16.56;61.86
67109;BME280;54027;50.786;7.058;2022-07-05T04:31:33;101644.13;;;16.59;61.59
67109;BME280;54027;50.786;7.058;2022-07-05T04:33:59;101640.88;;;16.52;62.32
67109;BME280;54027;50.786;7.058;2022-07-05T04:36:25;101657.31;;;16.57;62.33
67109;BME280;54027;50.786;7.058;2022-07-05T04:38:50;101650.41;;;16.55;61.59
67109;BME280;54027;50.786;7.058;2022-07-05T04:41:15;101649.53;;;16.54;61.70
67109;BME280;54027;50.786;7.058;2022-07-05T04:43:41;101655.53;;;16.58;61.99
67109;BME280;54027;50.786;7.058;2022-07-05T04:46:06;101659.88;;;16.59;61.84
67109;BME280;54027;50.786;7.058;2022-07-05T04:48:31;101660.13;;;16.51;61.81
67109;BME280;54027;50.786;7.058;2022-07-05T04:50:57;101666.53;;;16.41;62.38
67109;BME280;54027;50.786;7.058;2022-07-05T04:53:22;101665.47;;;16.48;62.80
67109;BME280;54027;50.786;7.058;2022-07-05T04:55:47;101655.00;;;16.46;62.65
67109;BME280;54027;50.786;7.058;2022-07-05T04:58:12;101658.47;;;16.47;62.79
67109;BME280;54027;50.786;7.058;2022-07-05T05:00:38;101664.88;;;16.38;63.15
67109;BME280;54027;50.786;7.058;2022-07-05T05:03:03;101659.50;;;16.43;63.49
67109;BME280;54027;50.786;7.058;2022-07-05T05:05:28;101667.78;;;16.57;62.67
67109;BME280;54027;50.786;7.058;2022-07-05T05:07:54;101674.03;;;16.53;62.60
67109;BME280;54027;50.786;7.058;2022-07-05T05:10:19;101667.22;;;16.47;63.88
67109;BME280;54027;50.786;7.058;2022-07-05T05:12:44;101669.50;;;16.58;62.86
67109;BME280;54027;50.786;7.058;2022-07-05T05:15:10;101666.13;;;16.55;62.96
67109;BME280;54027;50.786;7.058;2022-07-05T05:17:39;101654.50;;;16.63;62.66
67109;BME280;54027;50.786;7.058;2022-07-05T05:20:06;101663.13;;;16.67;62.99
67109;BME280;54027;50.786;7.058;2022-07-05T05:22:32;101667.28;;;16.74;62.60
67109;BME280;54027;50.786;7.058;2022-07-05T05:24:57;101667.44;;;16.69;62.48
67109;BME280;54027;50.786;7.058;2022-07-05T05:27:23;101675.66;;;16.57;62.97
67109;BME280;54027;50.786;7.058;2022-07-05T05:29:48;101672.78;;;16.65;63.23
67109;BME280;54027;50.786;7.058;2022-07-05T05:32:13;101673.31;;;16.48;63.01
67109;BME280;54027;50.786;7.058;2022-07-05T05:34:38;101672.97;;;16.59;63.26
67109;BME280;54027;50.786;7.058;2022-07-05T05:37:04;101672.13;;;16.58;63.55
67109;BME280;54027;50.786;7.058;2022-07-05T05:39:29;101674.28;;;16.73;62.83
67109;BME280;54027;50.786;7.058;2022-07-05T05:41:54;101676.28;;;16.65;62.72
67109;BME280;54027;50.786;7.058;2022-07-05T05:44:20;101683.88;;;16.74;62.86
67109;BME280;54027;50.786;7.058;2022-07-05T05:46:45;101680.56;;;16.68;62.89
67109;BME280;54027;50.786;7.058;2022-07-05T05:49:10;101691.97;;;16.67;63.08
67109;BME280;54027;50.786;7.058;2022-07-05T05:51:36;101686.56;;;16.73;63.01
67109;BME280;54027;50.786;7.058;2022-07-05T05:54:01;101678.59;;;16.76;62.77
67109;BME280;54027;50.786;7.058;2022-07-05T05:56:26;101682.13;;;16.75;63.31
67109;BME280;54027;50.786;7.058;2022-07-05T05:58:52;101690.00;;;16.75;64.11
67109;BME280;54027;50.786;7.058;2022-07-05T06:01:17;101692.47;;;16.79;64.32
67109;BME280;54027;50.786;7.058;2022-07-05T06:03:43;101693.19;;;16.84;63.66
67109;BME280;54027;50.786;7.058;2022-07-05T06:06:08;101695.19;;;16.76;62.79
67109;BME280;54027;50.786;7.058;2022-07-05T06:08:33;101697.81;;;16.76;62.75
67109;BME280;54027;50.786;7.058;2022-07-05T06:10:58;101696.31;;;16.68;63.85
67109;BME280;54027;50.786;7.058;2022-07-05T06:13:24;101707.13;;;16.86;64.35
67109;BME280;54027;50.786;7.058;2022-07-05T06:15:49;101698.47;;;16.83;64.56
67109;BME280;54027;50.786;7.058;2022-07-05T06:18:14;101699.34;;;16.83;63.64
67109;BME280;54027;50.786;7.058;2022-07-05T06:20:40;101702.66;;;16.88;62.88
67109;BME280;54027;50.786;7.058;2022-07-05T06:23:06;101706.16;;;16.89;62.75
67109;BME280;54027;50.786;7.058;2022-07-05T06:25:32;101705.00;;;16.97;62.70
67109;BME280;54027;50.786;7.058;2022-07-05T06:27:58;101705.28;;;16.88;62.94
67109;BME280;54027;50.786;7.058;2022-07-05T06:30:25;101707.13;;;16.86;63.12
67109;BME280;54027;50.786;7.058;2022-07-05T06:32:50;101709.53;;;16.92;63.13
67109;BME280;54027;50.786;7.058;2022-07-05T06:35:16;101711.06;;;16.99;63.33
67109;BME280;54027;50.786;7.058;2022-07-05T06:37:46;101715.28;;;17.03;62.15
67109;BME280;54027;50.786;7.058;2022-07-05T06:40:12;101710.91;;;17.04;62.44
67109;BME280;54027;50.786;7.058;2022-07-05T06:42:37;101715.28;;;17.03;63.65
67109;BME280;54027;50.786;7.058;2022-07-05T06:45:04;101718.75;;;17.05;63.27
67109;BME280;54027;50.786;7.058;2022-07-05T06:47:29;101720.44;;;17.06;64.45
67109;BME280;54027;50.786;7.058;2022-07-05T06:49:56;101720.41;;;17.08;63.58
67109;BME280;54027;50.786;7.058;2022-07-05T06:52:22;101723.16;;;17.03;62.93
67109;BME280;54027;50.786;7.058;2022-07-05T06:54:47;101725.66;;;17.08;63.98
67109;BME280;54027;50.786;7.058;2022-07-05T06:57:13;101724.69;;;17.11;63.30
67109;BME280;54027;50.786;7.058;2022-07-05T06:59:38;101719.75;;;17.01;63.15
67109;BME280;54027;50.786;7.058;2022-07-05T07:02:03;101723.16;;;17.03;62.70
67109;BME280;54027;50.786;7.058;2022-07-05T07:04:29;101717.81;;;17.06;63.29
67109;BME280;54027;50.786;7.058;2022-07-05T07:06:54;101721.22;;;17.10;63.15
67109;BME280;54027;50.786;7.058;2022-07-05T07:09:19;101723.44;;;17.22;63.30
67109;BME280;54027;50.786;7.058;2022-07-05T07:11:47;101727.72;;;17.25;62.16
67109;BME280;54027;50.786;7.058;2022-07-05T07:14:13;101720.75;;;17.24;62.48
67109;BME280;54027;50.786;7.058;2022-07-05T07:16:38;101725.97;;;17.25;61.51
67109;BME280;54027;50.786;7.058;2022-07-05T07:19:04;101722.25;;;17.31;62.48
67109;BME280;54027;50.786;7.058;2022-07-05T07:21:29;101725.69;;;17.33;62.41
67109;BME280;54027;50.786;7.058;2022-07-05T07:23:54;101729.13;;;17.35;61.22
67109;BME280;54027;50.786;7.058;2022-07-05T07:26:20;101730.22;;;17.29;61.29
67109;BME280;54027;50.786;7.058;2022-07-05T07:28:45;101725.69;;;17.33;60.99
67109;BME280;54027;50.786;7.058;2022-07-05T07:31:10;101727.59;;;17.29;62.55
67109;BME280;54027;50.786;7.058;2022-07-05T07:33:36;101733.53;;;17.34;62.00
67109;BME280;54027;50.786;7.058;2022-07-05T07:36:01;101734.22;;;17.39;62.43
67109;BME280;54027;50.786;7.058;2022-07-05T07:38:27;101723.47;;;17.47;61.53
67109;BME280;54027;50.786;7.058;2022-07-05T07:40:52;101734.78;;;17.49;62.63
67109;BME280;54027;50.786;7.058;2022-07-05T07:43:18;101731.25;;;17.50;62.31
67109;BME280;54027;50.786;7.058;2022-07-05T07:45:43;101732.94;;;17.51;62.32
67109;BME280;54027;50.786;7.058;2022-07-05T07:48:14;101721.53;;;17.52;60.02
67109;BME280;54027;50.786;7.058;2022-07-05T07:50:40;101730.09;;;17.57;59.19
67109;BME280;54027;50.786;7.058;2022-07-05T07:53:05;101731.94;;;17.55;59.62
67109;BME280;54027;50.786;7.058;2022-07-05T07:55:30;101723.16;;;17.56;59.57
67109;BME280;54027;50.786;7.058;2022-07-05T07:57:56;101725.63;;;17.60;59.37
67109;BME280;54027;50.786;7.058;2022-07-05T08:00:21;101729.06;;;17.63;58.13
67109;BME280;54027;50.786;7.058;2022-07-05T08:02:50;101734.22;;;17.66;58.06
67109;BME280;54027;50.786;7.058;2022-07-05T08:05:15;101732.56;;;17.63;57.15
67109;BME280;54027;50.786;7.058;2022-07-05T08:07:40;101730.72;;;17.65;56.25
67109;BME280;54027;50.786;7.058;2022-07-05T08:10:06;101734.94;;;17.71;56.62
67109;BME280;54027;50.786;7.058;2022-07-05T08:12:31;101732.31;;;17.71;56.47
67109;BME280;54027;50.786;7.058;2022-07-05T08:14:57;101736.63;;;17.72;56.39
67109;BME280;54027;50.786;7.058;2022-07-05T08:17:22;101743.72;;;17.70;56.93
67109;BME280;54027;50.786;7.058;2022-07-05T08:19:47;101728.69;;;17.73;56.51
67109;BME280;54027;50.786;7.058;2022-07-05T08:22:31;101730.28;;;17.77;55.21
67109;BME280;54027;50.786;7.058;2022-07-05T08:24:57;101725.78;;;17.81;55.20
67109;BME280;54027;50.786;7.058;2022-07-05T08:27:23;101723.13;;;17.82;55.35
67109;BME280;54027;50.786;7.058;2022-07-05T08:29:48;101720.50;;;17.82;56.55
67109;BME280;54027;50.786;7.058;2022-07-05T08:32:14;101721.28;;;17.84;56.40
67109;BME280;54027;50.786;7.058;2022-07-05T08:34:40;101716.94;;;17.83;55.99
67109;BME280;54027;50.786;7.058;2022-07-05T08:37:05;101716.81;;;17.86;56.75
67109;BME280;54027;50.786;7.058;2022-07-05T08:39:31;101719.41;;;17.88;54.58
67109;BME280;54027;50.786;7.058;2022-07-05T08:41:57;101719.41;;;17.88;53.75
67109;BME280;54027;50.786;7.058;2022-07-05T08:44:23;101715.69;;;17.93;54.15
67109;BME280;54027;50.786;7.058;2022-07-05T08:46:49;101727.13;;;17.92;54.19
67109;BME280;54027;50.786;7.058;2022-07-05T08:49:16;101729.00;;;17.89;53.60
67109;BME280;54027;50.786;7.058;2022-07-05T08:51:45;101721.84;;;17.92;54.72
67109;BME280;54027;50.786;7.058;2022-07-05T08:54:11;101714.69;;;17.97;53.95
67109;BME280;54027;50.786;7.058;2022-07-05T08:56:37;101718.16;;;17.98;54.46
67109;BME280;54027;50.786;7.058;2022-07-05T08:59:02;101717.25;;;17.99;53.94
67109;BME280;54027;50.786;7.058;2022-07-05T09:01:28;101718.66;;;18.07;53.62
67109;BME280;54027;50.786;7.058;2022-07-05T09:03:56;101719.34;;;18.12;53.03
67109;BME280;54027;50.786;7.058;2022-07-05T09:06:25;101717.78;;;18.08;52.68
67109;BME280;54027;50.786;7.058;2022-07-05T09:08:51;101723.81;;;18.10;51.95
67109;BME280;54027;50.786;7.058;2022-07-05T09:11:18;101719.47;;;18.09;52.91
67109;BME280;54027;50.786;7.058;2022-07-05T09:13:48;101722.22;;;18.06;53.58
67109;BME280;54027;50.786;7.058;2022-07-05T09:16:14;101729.94;;;18.11;50.68
67109;BME280;54027;50.786;7.058;2022-07-05T09:21:38;101718.53;;;18.12;51.34
67109;BME280;54027;50.786;7.058;2022-07-05T09:23:57;101719.72;;;18.27;51.51
67109;BME280;54027;50.786;7.058;2022-07-05T09:26:43;101713.50;;;18.28;51.61
67109;BME280;54027;50.786;7.058;2022-07-05T09:29:16;101715.47;;;18.23;50.96
67109;BME280;54027;50.786;7.058;2022-07-05T09:31:43;101721.63;;;18.22;50.39
67109;BME280;54027;50.786;7.058;2022-07-05T09:34:13;101721.28;;;18.31;49.16
67109;BME280;54027;50.786;7.058;2022-07-05T09:39:16;101720.28;;;18.35;48.26
67109;BME280;54027;50.786;7.058;2022-07-05T09:41:42;101724.44;;;18.40;48.19
67109;BME280;54027;50.786;7.058;2022-07-05T09:44:07;101717.22;;;18.47;48.90
67109;BME280;54027;50.786;7.058;2022-07-05T09:46:33;101717.34;;;18.42;48.97
67109;BME280;54027;50.786;7.058;2022-07-05T09:48:58;101714.34;;;18.53;48.96
67109;BME280;54027;50.786;7.058;2022-07-05T09:51:24;101714.78;;;18.41;49.18
67109;BME280;54027;50.786;7.058;2022-07-05T09:53:50;101717.22;;;18.47;49.47
67109;BME280;54027;50.786;7.058;2022-07-05T09:56:16;101715.31;;;18.50;49.65
67109;BME280;54027;50.786;7.058;2022-07-05T09:58:42;101716.31;;;18.48;49.35
67109;BME280;54027;50.786;7.058;2022-07-05T10:01:28;101720.78;;;18.44;49.63
67109;BME280;54027;50.786;7.058;2022-07-05T10:03:54;101722.56;;;18.44;48.95
67109;BME280;54027;50.786;7.058;2022-07-05T10:06:20;101719.72;;;18.50;48.65
67109;BME280;54027;50.786;7.058;2022-07-05T10:08:46;101719.19;;;18.40;49.52
67109;BME280;54027;50.786;7.058;2022-07-05T10:11:13;101717.59;;;18.59;48.35
67109;BME280;54027;50.786;7.058;2022-07-05T10:13:39;101716.66;;;18.60;46.34
67109;BME280;54027;50.786;7.058;2022-07-05T10:16:04;101723.09;;;18.53;48.67
67109;BME280;54027;50.786;7.058;2022-07-05T10:18:30;101719.75;;;18.72;44.47
67109;BME280;54027;50.786;7.058;2022-07-05T10:20:58;101716.50;;;18.65;48.04
67109;BME280;54027;50.786;7.058;2022-07-05T10:23:24;101712.88;;;18.67;46.32
67109;BME280;54027;50.786;7.058;2022-07-05T10:25:50;101718.31;;;18.63;45.70
67109;BME280;54027;50.786;7.058;2022-07-05T10:28:16;101722.00;;;18.59;46.03
67109;BME280;54027;50.786;7.058;2022-07-05T10:30:44;101726.16;;;18.64;46.01
67109;BME280;54027;50.786;7.058;2022-07-05T10:33:11;101716.28;;;18.69;43.77
67109;BME280;54027;50.786;7.058;2022-07-05T10:35:37;101720.34;;;18.78;42.96
67109;BME280;54027;50.786;7.058;2022-07-05T10:38:03;101722.06;;;18.79;42.99
67109;BME280;54027;50.786;7.058;2022-07-05T10:40:30;101716.88;;;18.78;43.44
67109;BME280;54027;50.786;7.058;2022-07-05T10:42:58;101720.78;;;18.67;43.51
67109;BME280;54027;50.786;7.058;2022-07-05T10:53:11;101710.78;;;18.76;43.21
67109;BME280;54027;50.786;7.058;2022-07-05T10:55:50;101706.38;;;18.76;44.29
67109;BME280;54027;50.786;7.058;2022-07-05T11:00:42;101707.75;;;18.86;41.01
67109;BME280;54027;50.786;7.058;2022-07-05T11:03:54;101710.91;;;18.73;45.32
67109;BME280;54027;50.786;7.058;2022-07-05T11:05:53;101702.88;;;18.97;42.80
67109;BME280;54027;50.786;7.058;2022-07-05T11:08:19;101704.63;;;18.77;43.13
67109;BME280;54027;50.786;7.058;2022-07-05T11:13:38;101707.50;;;18.92;43.48
67109;BME280;54027;50.786;7.058;2022-07-05T11:18:45;101711.28;;;19.07;44.60
67109;BME280;54027;50.786;7.058;2022-07-05T11:21:16;101707.53;;;19.12;43.05
67109;BME280;54027;50.786;7.058;2022-07-05T11:23:42;101704.75;;;19.15;43.42
67109;BME280;54027;50.786;7.058;2022-07-05T11:26:07;101702.50;;;19.06;43.70
67109;BME280;54027;50.786;7.058;2022-07-05T11:28:41;101707.81;;;19.05;44.34
67109;BME280;54027;50.786;7.058;2022-07-05T11:31:07;101697.25;;;19.06;43.55
67109;BME280;54027;50.786;7.058;2022-07-05T11:33:34;101695.91;;;19.16;43.13
67109;BME280;54027;50.786;7.058;2022-07-05T11:36:00;101692.84;;;19.07;43.10
67109;BME280;54027;50.786;7.058;2022-07-05T11:38:26;101688.97;;;19.15;42.85
67109;BME280;54027;50.786;7.058;2022-07-05T11:40:51;101694.22;;;19.37;42.13
67109;BME280;54027;50.786;7.058;2022-07-05T11:43:28;101684.50;;;19.38;42.47
67109;BME280;54027;50.786;7.058;2022-07-05T11:45:59;101685.88;;;19.26;43.78
67109;BME280;54027;50.786;7.058;2022-07-05T11:48:25;101682.22;;;19.30;42.54
67109;BME280;54027;50.786;7.058;2022-07-05T11:50:51;101687.97;;;19.18;43.01
67109;BME280;54027;50.786;7.058;2022-07-05T11:53:27;101678.94;;;19.23;42.03
67109;BME280;54027;50.786;7.058;2022-07-05T11:55:59;101687.75;;;19.22;41.78
67109;BME280;54027;50.786;7.058;2022-07-05T11:58:31;101682.38;;;19.25;41.23
67109;BME280;54027;50.786;7.058;2022-07-05T12:00:57;101681.47;;;19.26;41.75
67109;BME280;54027;50.786;7.058;2022-07-05T12:03:22;101682.69;;;19.40;41.22
67109;BME280;54027;50.786;7.058;2022-07-05T12:05:47;101667.75;;;19.18;41.56
67109;BME280;54027;50.786;7.058;2022-07-05T12:08:19;101666.19;;;19.35;42.03
67109;BME280;54027;50.786;7.058;2022-07-05T12:10:48;101668.06;;;19.33;42.48
67109;BME280;54027;50.786;7.058;2022-07-05T12:13:42;101672.47;;;19.32;42.76
67109;BME280;54027;50.786;7.058;2022-07-05T12:16:07;101664.50;;;19.34;42.41
67109;BME280;54027;50.786;7.058;2022-07-05T12:18:45;101668.69;;;19.38;42.12
67109;BME280;54027;50.786;7.058;2022-07-05T12:21:13;101657.75;;;19.47;41.80
67109;BME280;54027;50.786;7.058;2022-07-05T12:23:42;101661.91;;;19.52;41.35
67109;BME280;54027;50.786;7.058;2022-07-05T12:26:09;101659.41;;;19.49;40.21
67109;BME280;54027;50.786;7.058;2022-07-05T12:28:34;101656.78;;;19.49;41.83
67109;BME280;54027;50.786;7.058;2022-07-05T12:31:13;101662.25;;;19.45;42.13
67109;BME280;54027;50.786;7.058;2022-07-05T12:33:39;101649.53;;;19.54;41.62
67109;BME280;54027;50.786;7.058;2022-07-05T12:36:04;101651.63;;;19.46;42.44
67109;BME280;54027;50.786;7.058;2022-07-05T12:38:35;101655.66;;;19.55;43.23
67109;BME280;54027;50.786;7.058;2022-07-05T12:41:00;101655.81;;;19.52;42.31
67109;BME280;54027;50.786;7.058;2022-07-05T12:43:26;101655.84;;;19.50;42.53
67109;BME280;54027;50.786;7.058;2022-07-05T12:46:05;101655.19;;;19.65;42.45
67109;BME280;54027;50.786;7.058;2022-07-05T12:48:35;101653.47;;;19.64;42.01
67109;BME280;54027;50.786;7.058;2022-07-05T12:51:01;101640.53;;;19.40;42.72
67109;BME280;54027;50.786;7.058;2022-07-05T12:53:27;101652.34;;;19.50;41.57
67109;BME280;54027;50.786;7.058;2022-07-05T12:56:12;101652.81;;;19.59;41.52
67109;BME280;54027;50.786;7.058;2022-07-05T12:59:03;101643.72;;;19.46;41.86
67109;BME280;54027;50.786;7.058;2022-07-05T13:01:29;101648.63;;;19.74;41.82
67109;BME280;54027;50.786;7.058;2022-07-05T13:09:14;101641.91;;;19.87;40.68
67109;BME280;54027;50.786;7.058;2022-07-05T13:11:39;101645.31;;;19.89;41.72
67109;BME280;54027;50.786;7.058;2022-07-05T13:14:05;101644.44;;;19.89;42.06